createdAt,value
2022-08-17T00:00:43.429Z,22.48
2022-08-17T00:05:54.549Z,22.39
2022-08-17T00:10:59.835Z,22.33
2022-08-17T00:16:10.322Z,22.14
2022-08-17T00:21:23.850Z,21.99
2022-08-17T00:26:43.578Z,21.87
2022-08-17T00:31:52.737Z,21.97
2022-08-17T00:36:57.372Z,22.12
2022-08-17T00:42:01.617Z,22.15
2022-08-17T00:47:05.960Z,21.99
2022-08-17T00:52:19.606Z,21.82
2022-08-17T00:57:59.261Z,21.75
2022-08-17T01:03:11.487Z,21.77
2022-08-17T01:08:22.841Z,21.78
2022-08-17T01:13:28.312Z,21.77
2022-08-17T01:18:34.754Z,21.65
2022-08-17T01:23:39.088Z,21.57
2022-08-17T01:28:54.373Z,21.58
2022-08-17T01:34:05.204Z,21.57
2022-08-17T01:39:30.808Z,21.54
2022-08-17T01:44:38.919Z,21.50
2022-08-17T01:49:42.955Z,21.51
2022-08-17T01:55:02.423Z,21.43
2022-08-17T02:00:12.552Z,21.38
2022-08-17T02:05:17.699Z,21.37
2022-08-17T02:10:24.968Z,21.31
2022-08-17T02:15:38.721Z,21.25
2022-08-17T02:20:43.619Z,21.25
2022-08-17T02:25:49.276Z,21.31
2022-08-17T02:31:00.745Z,21.34
2022-08-17T02:36:11.454Z,21.36
2022-08-17T02:41:15.672Z,21.50
2022-08-17T02:46:20.812Z,21.50
2022-08-17T02:51:28.441Z,21.50
2022-08-17T02:56:32.688Z,21.44
2022-08-17T03:01:37.050Z,21.36
2022-08-17T03:06:41.070Z,21.26
2022-08-17T03:11:45.311Z,21.22
2022-08-17T03:16:50.477Z,21.20
2022-08-17T03:21:55.398Z,21.21
2022-08-17T03:26:59.763Z,21.16
2022-08-17T03:32:17.433Z,21.07
2022-08-17T03:37:21.552Z,20.98
2022-08-17T03:42:32.597Z,20.93
2022-08-17T03:47:56.130Z,20.97
2022-08-17T03:53:22.150Z,20.99
2022-08-17T03:58:26.287Z,21.02
2022-08-17T04:03:30.329Z,20.99
2022-08-17T04:08:36.232Z,20.94
2022-08-17T04:13:40.540Z,20.91
2022-08-17T04:18:44.364Z,20.96
2022-08-17T04:23:49.013Z,21.00
2022-08-17T04:28:53.259Z,20.97
2022-08-17T04:33:57.392Z,20.98
2022-08-17T04:39:02.325Z,21.14
2022-08-17T04:44:06.491Z,21.31
2022-08-17T04:49:12.653Z,21.53
2022-08-17T04:54:23.141Z,21.67
2022-08-17T04:59:27.274Z,21.82
2022-08-17T05:04:35.025Z,22.04
2022-08-17T05:09:39.445Z,22.22
2022-08-17T05:14:43.576Z,22.35
2022-08-17T05:19:51.836Z,22.47
2022-08-17T05:24:56.247Z,22.66
2022-08-17T05:30:02.038Z,22.82
2022-08-17T05:35:07.398Z,22.92
2022-08-17T05:40:12.350Z,23.06
2022-08-17T05:45:32.100Z,23.18
2022-08-17T05:51:31.656Z,23.25
2022-08-17T05:56:44.468Z,23.50
2022-08-17T06:02:04.269Z,23.79
2022-08-17T06:07:39.515Z,24.13
2022-08-17T06:13:08.416Z,24.59
2022-08-17T06:18:18.537Z,24.77
2022-08-17T06:23:44.295Z,24.92
2022-08-17T06:28:56.325Z,25.33
2022-08-17T06:34:04.379Z,25.63
2022-08-17T06:40:11.378Z,25.90
2022-08-17T06:45:29.370Z,26.19
2022-08-17T06:51:00.726Z,26.31
2022-08-17T06:56:22.771Z,26.31
2022-08-17T07:01:35.752Z,26.55
2022-08-17T07:06:57.652Z,26.99
2022-08-17T07:12:15.709Z,27.38
2022-08-17T07:17:46.700Z,27.63
2022-08-17T07:23:05.114Z,27.99
2022-08-17T07:28:09.499Z,28.29
2022-08-17T07:33:23.310Z,28.43
2022-08-17T07:38:34.702Z,28.68
2022-08-17T07:43:41.111Z,28.88
2022-08-17T07:48:55.563Z,29.10
2022-08-17T07:54:24.070Z,29.34
2022-08-17T08:00:12.666Z,29.48
2022-08-17T08:05:30.828Z,29.73
2022-08-17T08:11:34.367Z,30.08
2022-08-17T08:16:38.394Z,30.02
2022-08-17T08:22:03.725Z,30.03
2022-08-17T08:27:19.726Z,30.25
2022-08-17T08:32:57.568Z,30.44
2022-08-17T08:38:24.400Z,30.73
2022-08-17T08:43:55.534Z,30.92
2022-08-17T08:49:45.034Z,31.08
2022-08-17T08:55:04.376Z,31.49
2022-08-17T09:00:18.189Z,32.01
2022-08-17T09:06:37.329Z,32.20
2022-08-17T09:12:02.465Z,32.43
2022-08-17T09:18:03.528Z,32.77
2022-08-17T09:23:34.594Z,32.46
2022-08-17T09:28:43.999Z,32.78
2022-08-17T09:33:51.760Z,33.02
2022-08-17T09:39:12.753Z,33.16
2022-08-17T09:44:53.307Z,33.19
2022-08-17T09:51:04.286Z,33.43
2022-08-17T09:56:07.446Z,33.66
2022-08-17T10:02:00.277Z,33.66
2022-08-17T10:07:34.450Z,33.41
2022-08-17T10:12:49.586Z,33.49
2022-08-17T10:18:38.204Z,33.81
2022-08-17T10:24:04.785Z,33.70
2022-08-17T10:29:14.118Z,34.11
2022-08-17T10:35:02.661Z,34.35
2022-08-17T10:40:28.487Z,34.76
2022-08-17T10:46:31.211Z,35.10
2022-08-17T10:51:41.115Z,35.38
2022-08-17T10:56:51.843Z,35.27
2022-08-17T11:02:19.830Z,35.48
2022-08-17T11:08:02.338Z,35.70
2022-08-17T11:13:41.509Z,35.72
2022-08-17T11:19:10.779Z,35.76
2022-08-17T11:24:19.930Z,36.01
2022-08-17T11:29:49.443Z,35.67
2022-08-17T11:35:21.341Z,35.15
2022-08-17T11:41:20.504Z,35.06
2022-08-17T11:47:19.595Z,35.15
2022-08-17T11:52:48.602Z,35.74
2022-08-17T11:58:16.794Z,35.41
2022-08-17T12:03:32.869Z,35.21
2022-08-17T12:08:43.865Z,35.03
2022-08-17T12:13:55.846Z,35.58
2022-08-17T12:19:03.820Z,35.60
2022-08-17T12:25:01.831Z,35.49
2022-08-17T12:30:16.657Z,35.70
2022-08-17T12:35:39.560Z,35.72
2022-08-17T12:40:58.141Z,35.50
2022-08-17T12:46:15.270Z,35.13
2022-08-17T12:51:19.777Z,34.53
2022-08-17T12:56:23.916Z,34.18
2022-08-17T13:01:28.187Z,33.83
2022-08-17T13:06:37.085Z,33.55
2022-08-17T13:11:55.607Z,33.30
2022-08-17T13:17:07.365Z,33.01
2022-08-17T13:22:15.394Z,32.81
2022-08-17T13:27:23.614Z,33.04
2022-08-17T13:32:45.106Z,33.61
2022-08-17T13:38:38.322Z,33.97
2022-08-17T13:43:48.887Z,33.67
2022-08-17T13:49:10.334Z,33.46
2022-08-17T13:54:34.801Z,33.65
2022-08-17T13:59:52.993Z,34.26
2022-08-17T14:05:01.327Z,34.54
2022-08-17T14:10:15.587Z,34.28
2022-08-17T14:15:25.013Z,33.98
2022-08-17T14:20:50.591Z,33.64
2022-08-17T14:25:55.042Z,33.55
2022-08-17T14:30:59.353Z,33.64
2022-08-17T14:36:05.190Z,33.87
2022-08-17T14:41:09.781Z,33.68
2022-08-17T14:46:14.391Z,33.35
2022-08-17T14:51:23.826Z,33.00
2022-08-17T14:56:28.221Z,32.80
2022-08-17T15:01:39.605Z,32.60
2022-08-17T15:06:48.968Z,32.34
2022-08-17T15:11:54.461Z,32.13
2022-08-17T15:17:00.225Z,31.86
2022-08-17T15:22:04.655Z,31.78
2022-08-17T15:27:08.786Z,31.72
2022-08-17T15:32:33.096Z,31.69
2022-08-17T15:37:39.654Z,31.59
2022-08-17T15:42:43.717Z,31.41
2022-08-17T15:47:47.996Z,31.39
2022-08-17T15:53:01.647Z,31.97
2022-08-17T15:58:06.173Z,32.84
2022-08-17T16:03:45.351Z,32.85
2022-08-17T16:08:36.232Z,33.51
2022-08-17T16:13:42.248Z,34.13
2022-08-17T16:18:59.470Z,34.29
2022-08-17T16:24:13.226Z,34.06
2022-08-17T16:29:19.070Z,33.21
2022-08-17T16:34:24.025Z,32.65
2022-08-17T16:39:30.062Z,31.97
2022-08-17T16:44:34.339Z,31.39
2022-08-17T16:49:39.712Z,30.93
2022-08-17T16:54:45.960Z,30.59
2022-08-17T16:59:54.398Z,30.29
2022-08-17T17:05:59.452Z,29.96
2022-08-17T17:11:46.570Z,29.58
2022-08-17T17:17:19.793Z,29.28
2022-08-17T17:23:03.807Z,29.12
2022-08-17T17:28:36.809Z,28.97
2022-08-17T17:34:00.913Z,28.70
2022-08-17T17:39:37.091Z,28.54
2022-08-17T17:45:23.778Z,28.33
2022-08-17T17:50:41.314Z,28.08
2022-08-17T17:56:19.656Z,27.92
2022-08-17T18:02:53.632Z,27.68
2022-08-17T18:08:39.402Z,27.45
2022-08-17T18:14:26.518Z,27.24
2022-08-17T18:19:33.135Z,27.02
2022-08-17T18:24:41.633Z,26.81
2022-08-17T18:29:48.483Z,26.75
2022-08-17T18:35:28.380Z,26.66
2022-08-17T18:40:38.397Z,26.60
2022-08-17T18:45:58.568Z,26.50
2022-08-17T18:51:40.921Z,26.40
2022-08-17T18:57:00.268Z,26.25
2022-08-17T19:07:51.995Z,25.91
2022-08-17T19:13:12.697Z,25.87
2022-08-17T19:18:41.219Z,25.80
2022-08-17T19:24:01.538Z,25.75
2022-08-17T19:29:19.526Z,25.54
2022-08-17T19:34:34.458Z,25.33
2022-08-17T19:40:48.926Z,25.12
2022-08-17T19:46:07.872Z,24.92
2022-08-17T19:51:36.786Z,24.87
2022-08-17T19:57:12.539Z,24.78
2022-08-17T20:02:29.072Z,24.78
2022-08-17T20:08:12.602Z,24.88
2022-08-17T20:14:00.743Z,24.85
2022-08-17T20:19:35.432Z,24.71
2022-08-17T20:25:30.093Z,24.53
2022-08-17T20:30:43.051Z,24.35
2022-08-17T20:36:01.868Z,24.18
2022-08-17T20:41:10.810Z,24.06
2022-08-17T20:46:29.992Z,23.96
2022-08-17T20:52:01.448Z,23.99
2022-08-17T20:57:14.428Z,24.04
2022-08-17T21:02:24.791Z,24.03
2022-08-17T21:07:55.335Z,23.94
2022-08-17T21:13:15.672Z,23.72
2022-08-17T21:19:06.918Z,23.54
2022-08-17T21:24:33.166Z,23.39
2022-08-17T21:30:30.256Z,23.34
2022-08-17T21:36:16.633Z,23.44
2022-08-17T21:41:34.458Z,23.36
2022-08-17T21:46:46.469Z,23.10
2022-08-17T21:51:56.975Z,22.95
2022-08-17T21:57:06.404Z,22.82
2022-08-17T22:02:24.508Z,22.82
2022-08-17T22:08:00.403Z,22.77
2022-08-17T22:13:29.707Z,22.68
2022-08-17T22:18:34.901Z,22.65
2022-08-17T22:24:02.049Z,22.48
2022-08-17T22:29:57.475Z,22.29
2022-08-17T22:35:35.772Z,22.23
2022-08-17T22:40:40.627Z,22.23
2022-08-17T22:45:51.993Z,22.22
2022-08-17T22:51:14.714Z,22.29
2022-08-17T22:56:43.396Z,22.34
2022-08-17T23:02:16.343Z,22.27
2022-08-17T23:07:23.689Z,22.20
2022-08-17T23:12:28.240Z,22.11
2022-08-17T23:17:48.113Z,22.05
2022-08-17T23:22:54.289Z,21.95
2022-08-17T23:28:01.992Z,21.82
2022-08-17T23:33:12.577Z,21.68
2022-08-17T23:38:16.870Z,21.62
2022-08-17T23:43:24.212Z,21.46
2022-08-17T23:48:35.919Z,21.41
2022-08-17T23:53:50.895Z,21.43
2022-08-17T23:58:56.956Z,21.43
